Edmonton, Canada
Current Conditions -  °F | °C
As of 12:47 PM on Thursday 27 Nov 2014 (Local Time) from CYXD Reporting Station
Light Snow Light Snow  
Wind Chill: -11°   Ceiling: 500
Heat Index:   Visibility: 0.62mi
Dew Point:   Wind: 15mph
Humidity: 85%   Direction: 40°NE
Pressure: 30.01"   Gusts: NA
Location:  53.55°N, 113.49°W
Report Text: CYXD 271947Z AUTO 04013KT 5/8SM -SN VV005 M14/M16 A3001
Loading
Personal Weather Stations






























Interactive Weather Map New forecast layout! Learn more

10-Day Weather Forecast

Advertisements
Track Severe Weather on mobile